Memorial Field
KHOT : now visible

Airfield :











YOU CAN JOIN US ON...

 
LOGIN :

Register | Disclaimer

   EN    FR    IT 

 









Legend :    VFR   Marginal VFR   IFR   Intensive IFR   Very Intensive IFR
Visi :
Ceiling :
>= 8 km
>= 3000ft
5 to 8 km
1000 to 3000 ft
1500m to 5 km
500 to 1000 ft
800 to 1500m
200 to 500 ft
< 800m
< 200 ft
Symbols :   Thunderstorms  Fog  Heavy snow  Heavy precipitations  Wind > 20 kt






- Airport Elevation : 540 ft
- IATA code : HOT


KHOT - Memorial Field

CURRENT METAR :
  • 251853Z AUTO 25009KT 10SM FEW017 BKN085 22/18 A2956 RMK AO2 SLP006 T02220178

EXPIRED METARs :
  • 251753Z AUTO 21005KT 10SM BKN048 OVC075 20/18 A2959 RMK AO2 WSHFT 1647 RAE26 SLP017 P0021 60035 T02000183 10206 20156 58008
  • 251722Z AUTO 22009KT 8SM -RA FEW009 OVC044 19/18 A2960 RMK AO2 WSHFT 1647 LTG DSNT SE P0021 T01940178
  • 251716Z AUTO 23010G17KT 2 1/2SM -RA BR FEW012 SCT019 OVC044 19/18 A2961 RMK AO2 WSHFT 1647 LTG DSNT E AND SE P0021 T01940178
  • 251711Z AUTO 21010G18KT 3/4SM +RA BR FEW009 BKN020 OVC042 19/18 A2960 RMK AO2 WSHFT 1647 LTG DSNT E-S P0021 T01940183
  • 251659Z AUTO 25011G17KT 1 1/4SM +RA BR FEW009 BKN015 OVC027 20/18 A2962 RMK AO2 LTG DSNT S P0008 T02000183
  • 251636Z AUTO 20010G19KT 5SM -RA BR BKN012 OVC021 20/18 A2961 RMK AO2 RAE18B27 P0003 T02000183
  • 251619Z AUTO 21011KT 10SM BKN015 BKN039 OVC110 20/18 A2961 RMK AO2 LTG DSNT SE RAE18 P0001 T02000183

TAF KHOT
Valid from the 25 at 18:00 until the 26 at 18:00 UTC


251736Z 2518/2618 22012G19KT P6SM SCT009 OVC040
FM260000 24005KT P6SM SCT250
FM261200 28004KT P6SM FEW250
KZME FIR / North America



MET'MAP, your aeronautical weather chart ! - Copyright ORBIFLY December 2007 - Disclaimer

ORBIFLY MET'MAP TEAM :

Programming & Development : Alexandra Zaïnal
Concept & original design : Baudouin d'Aumeries
Assistance for programming : Marc-Olivier Méhu
Technical & hardware support : Manuel Goepfert

Contact : metmap@orbifly.com




SOURCES & CREDITS :

   NOAA       Earth
Advisory